Time;durP1;ratioP1;P1;durP2;ratioP2;P2;SDS_P1;SDS_P2;PMS_P1;PMS_P2;Temp;Humidity;BMP_temperature;BMP_pressure;BME280_temperature;BME280_humidity;BME280_pressure;Samples;Min_cycle;Max_cycle;Signal;HPM_P1;HPM_P2
2022/02/13 00:01:37;;;;;;;17.60;6.80;;;;;;;0.28;73.93;101075.67;25078;1316;3027098;-64
2022/02/13 00:04:06;;;;;;;20.20;6.90;;;;;;;0.07;74.30;101082.08;25112;1316;3055718;-64
2022/02/13 00:06:37;;;;;;;18.50;6.80;;;;;;;-0.15;75.02;101086.52;25119;1315;3026340;-64
2022/02/13 00:09:06;;;;;;;20.20;7.40;;;;;;;-0.36;75.96;101090.30;25168;1316;3026550;-64
2022/02/13 00:11:36;;;;;;;15.00;6.80;;;;;;;-0.46;76.03;101082.95;25090;1316;3054842;-66
2022/02/13 00:14:05;;;;;;;20.50;7.90;;;;;;;-0.73;77.09;101083.17;25138;1316;3027269;-64
2022/02/13 00:16:36;;;;;;;16.50;6.30;;;;;;;-0.78;77.59;101081.91;25054;1315;3049445;-65
2022/02/13 00:19:07;;;;;;;19.00;7.00;;;;;;;-0.19;76.14;101076.66;25144;1315;3030059;-65
2022/02/13 00:21:36;;;;;;;26.30;8.90;;;;;;;0.27;74.19;101077.23;25074;1315;3027474;-64
2022/02/13 00:24:06;;;;;;;28.00;9.30;;;;;;;0.27;73.63;101077.06;25155;1316;3026063;-64
2022/02/13 00:26:36;;;;;;;24.90;9.20;;;;;;;0.10;73.69;101079.33;25097;1316;3026070;-64
2022/02/13 00:29:05;;;;;;;21.50;7.60;;;;;;;-0.18;74.90;101095.12;25028;1316;3026512;-65
2022/02/13 00:31:34;;;;;;;17.80;7.80;;;;;;;-0.33;75.07;101094.79;25097;1316;3026853;-64
2022/02/13 00:34:04;;;;;;;15.60;6.10;;;;;;;-0.53;75.78;101096.82;25079;1316;3029516;-63
2022/02/13 00:36:33;;;;;;;19.30;7.60;;;;;;;-0.64;75.96;101095.83;25112;1314;3026505;-64
2022/02/13 00:39:02;;;;;;;13.90;6.30;;;;;;;-0.76;76.51;101088.83;25056;1316;3026301;-65
2022/02/13 00:41:31;;;;;;;19.00;6.60;;;;;;;-0.78;76.86;101086.38;25080;1316;3073382;-65
2022/02/13 00:44:01;;;;;;;14.20;4.90;;;;;;;-0.33;76.20;101085.84;25030;1315;3026395;-65
2022/02/13 00:46:30;;;;;;;32.10;7.90;;;;;;;0.28;73.96;101089.81;25071;1315;3051703;-64
2022/02/13 00:49:01;;;;;;;31.30;9.60;;;;;;;0.12;73.87;101089.52;25131;1316;3028154;-64
2022/02/13 00:51:31;;;;;;;37.40;11.40;;;;;;;0.01;74.13;101089.42;25042;1316;3055039;-64
2022/02/13 00:54:00;;;;;;;28.40;9.40;;;;;;;-0.27;75.02;101090.55;25127;1316;3026507;-65
2022/02/13 00:56:29;;;;;;;34.70;11.80;;;;;;;-0.44;75.56;101092.95;25084;1316;3028886;-65
2022/02/13 00:58:58;;;;;;;19.10;8.30;;;;;;;-0.53;76.02;101096.66;25118;1315;3052511;-66
2022/02/13 01:01:27;;;;;;;22.70;8.50;;;;;;;-0.81;77.13;101095.80;25098;1316;3026764;-65
2022/02/13 01:03:57;;;;;;;36.40;8.70;;;;;;;-0.84;77.59;101095.61;25035;1314;3051923;-62
2022/02/13 01:06:27;;;;;;;20.50;7.70;;;;;;;-0.25;76.63;101097.27;25130;1316;3026907;-65
2022/02/13 01:08:56;;;;;;;40.10;11.10;;;;;;;0.37;74.27;101097.64;25063;1316;3056390;-65
2022/02/13 01:11:25;;;;;;;37.20;10.80;;;;;;;0.27;73.73;101101.17;25081;1315;3027649;-64
2022/02/13 01:13:56;;;;;;;21.90;8.50;;;;;;;-0.06;74.65;101102.63;25079;1316;3053758;-63
2022/02/13 01:16:26;;;;;;;28.00;9.50;;;;;;;-0.35;75.37;101109.40;25040;1316;3028917;-65
2022/02/13 01:18:56;;;;;;;22.70;8.00;;;;;;;-0.46;75.83;101111.19;25102;1316;3052158;-65
2022/02/13 01:21:25;;;;;;;17.40;7.70;;;;;;;-0.58;75.99;101109.16;25074;1316;3026568;-64
2022/02/13 01:23:54;;;;;;;23.80;8.20;;;;;;;-0.78;76.76;101109.80;25051;1316;3048286;-63
2022/02/13 01:26:24;;;;;;;17.70;7.80;;;;;;;-0.91;77.53;101110.83;25099;1316;3026384;-64
2022/02/13 01:28:53;;;;;;;14.60;6.10;;;;;;;-0.88;77.77;101120.85;25110;1316;3027213;-64
2022/02/13 01:31:23;;;;;;;19.60;6.80;;;;;;;-0.22;76.37;101115.55;24834;1315;3317158;-64
2022/02/13 01:33:52;;;;;;;17.30;5.90;;;;;;;0.18;74.42;101117.32;25079;1315;3028589;-63
2022/02/13 01:36:21;;;;;;;18.30;5.90;;;;;;;0.04;74.45;101124.95;25139;1315;3054362;-65
2022/02/13 01:38:51;;;;;;;15.50;6.60;;;;;;;0.02;74.50;101129.58;25072;1316;3026883;-63
2022/02/13 01:41:19;;;;;;;17.60;6.70;;;;;;;-0.27;74.79;101139.10;25090;1315;3026467;-64
2022/02/13 01:43:48;;;;;;;17.20;6.70;;;;;;;-0.60;75.97;101130.83;25056;1315;3051371;-64
2022/02/13 01:46:17;;;;;;;19.30;6.90;;;;;;;-0.75;76.44;101128.08;25096;1316;3026706;-64
2022/02/13 01:48:47;;;;;;;18.70;7.10;;;;;;;-0.92;76.99;101132.66;25107;1316;3054588;-62
2022/02/13 01:51:16;;;;;;;19.50;6.50;;;;;;;-1.11;78.36;101134.81;25085;1314;3026394;-63
2022/02/13 01:53:45;;;;;;;15.50;6.30;;;;;;;-0.53;77.39;101127.46;24983;1316;3048813;-62
2022/02/13 01:56:15;;;;;;;20.90;8.40;;;;;;;-0.10;75.31;101130.16;25038;1316;3028057;-64
2022/02/13 01:58:44;;;;;;;23.20;8.40;;;;;;;-0.14;75.00;101135.63;25036;1316;3026440;-66
2022/02/13 02:01:13;;;;;;;22.40;9.30;;;;;;;-0.26;75.13;101139.46;25093;1314;3026835;-65
2022/02/13 02:03:45;;;;;;;29.20;12.90;;;;;;;-0.42;75.29;101143.41;25094;1315;3054612;-64
2022/02/13 02:06:15;;;;;;;30.50;9.10;;;;;;;-0.59;75.99;101142.52;25056;1316;3027592;-64
2022/02/13 02:08:44;;;;;;;33.70;12.20;;;;;;;-0.84;76.75;101140.33;25106;1316;3026976;-64
2022/02/13 02:11:13;;;;;;;36.20;12.70;;;;;;;-1.04;77.68;101136.45;25086;1316;3051910;-64
2022/02/13 02:13:42;;;;;;;29.80;10.80;;;;;;;-1.06;77.87;101136.09;25069;1316;3026236;-64
2022/02/13 02:16:11;;;;;;;23.40;9.40;;;;;;;-1.13;78.24;101136.68;25073;1316;3051344;-66
2022/02/13 02:18:40;;;;;;;31.40;10.20;;;;;;;-0.55;77.20;101135.02;25122;1316;3026896;-64
2022/02/13 02:21:10;;;;;;;27.70;10.50;;;;;;;-0.16;75.37;101136.64;25065;1315;3070532;-64
2022/02/13 02:23:39;;;;;;;31.50;12.00;;;;;;;-0.03;74.56;101135.91;25196;1316;3026960;-63
2022/02/13 02:26:08;;;;;;;37.00;12.40;;;;;;;-0.22;74.45;101138.30;25089;1316;3026484;-66
2022/02/13 02:28:38;;;;;;;30.30;11.10;;;;;;;-0.48;75.16;101142.84;25095;1316;3069269;-64
2022/02/13 02:31:07;;;;;;;35.70;12.40;;;;;;;-0.58;75.35;101140.83;25182;1316;3026302;-65
2022/02/13 02:33:36;;;;;;;42.50;14.80;;;;;;;-0.80;76.15;101142.79;25094;1316;3050978;-65
2022/02/13 02:36:13;;;;;;;50.00;16.20;;;;;;;-1.03;76.97;101145.08;25078;1315;3026583;-64
2022/02/13 02:38:42;;;;;;;45.60;16.20;;;;;;;-1.11;77.24;101145.48;25040;1314;3054157;-61
2022/02/13 02:41:12;;;;;;;46.40;13.90;;;;;;;-1.22;77.92;101144.81;25116;1316;3025973;-64
2022/02/13 02:43:41;;;;;;;40.60;14.40;;;;;;;-0.62;77.31;101148.52;25041;1316;3049741;-64
2022/02/13 02:46:10;;;;;;;51.70;17.20;;;;;;;-0.12;74.90;101147.02;25099;1316;3027495;-63
2022/02/13 02:48:40;;;;;;;59.80;20.10;;;;;;;0.02;74.38;101145.77;25095;1315;3056657;-64
2022/02/13 02:51:09;;;;;;;93.20;29.50;;;;;;;-0.22;74.44;101151.04;25084;1316;3026296;-63
2022/02/13 02:53:38;;;;;;;110.20;31.60;;;;;;;-0.45;75.38;101155.78;25091;1316;3053582;-64
2022/02/13 02:56:08;;;;;;;109.90;32.70;;;;;;;-0.66;75.94;101154.33;25091;1316;3026649;-65
2022/02/13 02:58:38;;;;;;;85.50;25.50;;;;;;;-0.83;76.25;101157.23;25111;1316;3027623;-65
2022/02/13 03:01:07;;;;;;;80.80;25.10;;;;;;;-0.92;76.59;101158.64;25072;1316;3026742;-65
2022/02/13 03:03:36;;;;;;;72.80;24.90;;;;;;;-1.01;76.86;101159.21;25087;1315;3026841;-64
2022/02/13 03:06:05;;;;;;;54.80;17.80;;;;;;;-1.10;77.71;101168.02;25105;1316;3026645;-64
2022/02/13 03:08:36;;;;;;;55.00;17.00;;;;;;;-0.45;76.58;101169.55;25114;1315;3053694;-64
2022/02/13 03:11:05;;;;;;;35.00;13.40;;;;;;;0.23;74.06;101174.56;25075;1316;3026574;-64
2022/02/13 03:13:35;;;;;;;38.00;14.20;;;;;;;0.12;73.96;101173.27;25023;1316;3026906;-63
2022/02/13 03:16:04;;;;;;;39.30;15.70;;;;;;;0.13;73.90;101171.89;25100;1315;3026011;-65
2022/02/13 03:18:33;;;;;;;34.30;15.10;;;;;;;-0.23;74.22;101179.96;25153;1314;3028240;-64
2022/02/13 03:21:02;;;;;;;35.80;12.90;;;;;;;-0.47;75.32;101175.38;25048;1316;3070744;-62
2022/02/13 03:23:31;;;;;;;26.30;10.30;;;;;;;-0.78;76.31;101176.72;25075;1316;3026368;-62
2022/02/13 03:26:00;;;;;;;24.40;11.70;;;;;;;-0.91;77.04;101181.88;25073;1314;3050364;-64
2022/02/13 03:28:30;;;;;;;22.40;10.20;;;;;;;-1.07;77.55;101183.89;25108;1315;3026572;-66
2022/02/13 03:30:59;;;;;;;19.40;8.70;;;;;;;-1.07;77.45;101184.42;25026;1315;3026201;-63
2022/02/13 03:33:29;;;;;;;25.60;8.50;;;;;;;-1.19;78.25;101187.34;25106;1315;3051697;-65
2022/02/13 03:35:59;;;;;;;14.20;7.10;;;;;;;-0.62;77.34;101183.65;25078;1315;3026872;-64
2022/02/13 03:38:28;;;;;;;21.60;9.20;;;;;;;-0.11;75.32;101181.83;25069;1316;3028909;-64
2022/02/13 03:40:57;;;;;;;23.60;9.20;;;;;;;-0.03;74.46;101178.63;25106;1315;3053571;-66
2022/02/13 03:43:26;;;;;;;18.10;8.30;;;;;;;-0.20;74.90;101175.18;25033;1315;3026497;-65
2022/02/13 03:45:55;;;;;;;14.40;8.00;;;;;;;-0.47;75.26;101171.08;25097;1316;3054947;-65
2022/02/13 03:48:24;;;;;;;18.40;7.70;;;;;;;-0.67;76.04;101172.21;25076;1316;3026583;-64
2022/02/13 03:50:54;;;;;;;23.10;8.30;;;;;;;-0.88;76.94;101171.08;25094;1316;3047601;-65
2022/02/13 03:53:23;;;;;;;15.40;7.90;;;;;;;-0.91;76.98;101168.98;25117;1315;3026793;-64
2022/02/13 03:55:52;;;;;;;19.80;8.70;;;;;;;-0.99;76.84;101165.24;25095;1313;3058284;-65
2022/02/13 03:58:20;;;;;;;17.30;7.10;;;;;;;-1.08;77.83;101170.27;25162;1316;3026825;-64
2022/02/13 04:00:50;;;;;;;15.10;7.20;;;;;;;-0.48;76.79;101170.54;25127;1316;3051453;-64
2022/02/13 04:03:19;;;;;;;22.20;8.40;;;;;;;0.14;74.09;101171.05;25026;1314;3026366;-65
2022/02/13 04:05:49;;;;;;;20.40;7.90;;;;;;;-0.10;74.09;101168.90;25123;1316;3028477;-64
2022/02/13 04:08:18;;;;;;;17.80;7.40;;;;;;;-0.14;74.52;101173.88;25110;1316;3026704;-64
2022/02/13 04:10:47;;;;;;;16.10;7.20;;;;;;;-0.35;74.32;101170.36;25175;1315;3054148;-64
2022/02/13 04:13:17;;;;;;;22.10;8.30;;;;;;;-0.60;75.25;101175.05;25028;1315;3026841;-64
2022/02/13 04:15:45;;;;;;;22.80;8.30;;;;;;;-0.73;75.99;101174.73;25115;1316;3028011;-65
2022/02/13 04:18:15;;;;;;;17.40;8.20;;;;;;;-0.88;76.23;101183.98;25052;1315;3026643;-64
2022/02/13 04:20:44;;;;;;;20.00;8.00;;;;;;;-0.99;76.85;101187.44;25151;1316;3026576;-65
2022/02/13 04:23:14;;;;;;;18.40;8.60;;;;;;;-1.10;77.08;101188.32;25081;1316;3026544;-63
2022/02/13 04:25:43;;;;;;;17.40;8.10;;;;;;;-1.19;77.72;101193.67;25155;1316;3026484;-65
2022/02/13 04:28:13;;;;;;;21.20;7.90;;;;;;;-0.78;77.43;101192.73;25053;1316;3026085;-62
2022/02/13 04:30:42;;;;;;;17.20;7.50;;;;;;;-0.20;75.09;101195.85;25100;1314;3050568;-63
2022/02/13 04:33:11;;;;;;;18.10;7.60;;;;;;;0.02;74.24;101193.15;25041;1316;3026629;-63
2022/02/13 04:35:40;;;;;;;18.00;8.80;;;;;;;0.09;73.84;101196.15;25089;1315;3071011;-64
2022/02/13 04:38:09;;;;;;;21.80;9.30;;;;;;;-0.31;74.03;101200.73;25108;1316;3026342;-64
2022/02/13 04:40:38;;;;;;;14.60;7.50;;;;;;;-0.42;74.58;101211.95;25137;1316;3026396;-63
2022/02/13 04:43:07;;;;;;;22.30;9.10;;;;;;;-0.73;75.43;101217.58;25080;1316;3067794;-64
2022/02/13 04:45:38;;;;;;;21.30;8.50;;;;;;;-0.85;76.01;101222.92;25079;1316;3026603;-63
2022/02/13 04:48:07;;;;;;;24.60;9.20;;;;;;;-0.93;76.09;101217.97;25080;1315;3026619;-63
2022/02/13 04:50:36;;;;;;;23.70;8.70;;;;;;;-1.10;76.78;101221.52;25091;1315;3029647;-64
2022/02/13 04:53:05;;;;;;;24.30;9.20;;;;;;;-1.18;77.36;101220.20;25165;1315;3048483;-64
2022/02/13 04:55:34;;;;;;;21.70;7.80;;;;;;;-1.23;77.39;101223.55;25127;1316;3026766;-65
2022/02/13 04:58:04;;;;;;;17.00;7.00;;;;;;;-0.62;76.87;101229.05;25042;1315;3070390;-65
2022/02/13 05:00:32;;;;;;;20.00;8.10;;;;;;;0.04;74.26;101233.32;25039;1315;3026340;-65
2022/02/13 05:03:01;;;;;;;17.40;7.40;;;;;;;0.21;73.04;101234.02;25106;1315;3026935;-66
2022/02/13 05:05:30;;;;;;;18.60;9.30;;;;;;;-0.03;73.24;101242.89;25022;1315;3071808;-64
2022/02/13 05:07:59;;;;;;;21.10;9.00;;;;;;;-0.24;73.88;101244.03;25096;1316;3028644;-65
2022/02/13 05:10:28;;;;;;;23.10;8.90;;;;;;;-0.54;74.51;101249.33;25057;1315;3050948;-66
2022/02/13 05:12:58;;;;;;;18.60;9.50;;;;;;;-0.66;75.06;101250.54;25019;1315;3028975;-63
2022/02/13 05:15:27;;;;;;;20.90;9.20;;;;;;;-0.87;75.66;101247.31;25105;1315;3028135;-63
2022/02/13 05:17:56;;;;;;;23.30;9.90;;;;;;;-1.01;76.38;101247.46;25088;1316;3050426;-65
2022/02/13 05:20:26;;;;;;;24.30;10.00;;;;;;;-0.99;76.37;101251.61;25104;1315;3029699;-65
2022/02/13 05:22:55;;;;;;;19.40;8.60;;;;;;;-1.11;76.99;101252.80;25083;1316;3026825;-64
2022/02/13 05:25:24;;;;;;;20.20;8.70;;;;;;;-0.55;75.86;101251.38;25075;1316;3051398;-60
2022/02/13 05:27:53;;;;;;;27.30;8.60;;;;;;;0.05;73.49;101254.70;25106;1316;3028798;-65
2022/02/13 05:30:22;;;;;;;15.60;7.90;;;;;;;0.14;72.55;101250.50;25077;1315;3054872;-64
2022/02/13 05:32:51;;;;;;;21.20;7.70;;;;;;;0.14;72.63;101252.38;25142;1315;3026761;-66
2022/02/13 05:35:20;;;;;;;16.90;8.00;;;;;;;-0.07;72.99;101257.32;25119;1315;3047926;-63
2022/02/13 05:37:49;;;;;;;22.00;9.70;;;;;;;-0.28;73.21;101261.71;25130;1315;3026583;-64
2022/02/13 05:40:19;;;;;;;25.10;9.70;;;;;;;-0.49;74.12;101263.69;25051;1315;3026833;-66
2022/02/13 05:42:48;;;;;;;26.60;9.90;;;;;;;-0.57;74.16;101267.54;25048;1315;3053345;-66
2022/02/13 05:45:17;;;;;;;28.30;10.80;;;;;;;-0.56;74.14;101269.96;25091;1316;3026376;-64
2022/02/13 05:47:48;;;;;;;28.40;12.80;;;;;;;-0.78;74.83;101277.39;25139;1316;3055705;-64
2022/02/13 05:50:21;;;;;;;33.70;13.70;;;;;;;-0.79;75.06;101273.77;25064;1316;3052652;-63
2022/02/13 05:52:50;;;;;;;29.60;13.70;;;;;;;-0.76;74.90;101276.05;25061;1315;3027220;-64
2022/02/13 05:55:19;;;;;;;29.10;12.00;;;;;;;-0.83;75.09;101273.69;25121;1315;3058518;-65
2022/02/13 05:57:47;;;;;;;22.50;10.50;;;;;;;-0.32;74.48;101269.75;25126;1316;3026898;-66
2022/02/13 06:00:17;;;;;;;24.90;10.80;;;;;;;0.23;72.69;101273.52;25107;1316;3050678;-65
2022/02/13 06:02:46;;;;;;;23.30;11.10;;;;;;;0.21;71.77;101273.50;25133;1316;3027160;-65
2022/02/13 06:05:15;;;;;;;26.10;11.90;;;;;;;0.01;72.28;101272.41;25048;1316;3054673;-64
2022/02/13 06:07:44;;;;;;;25.80;11.80;;;;;;;0.03;72.07;101267.60;25111;1316;3026300;-64
2022/02/13 06:10:14;;;;;;;26.30;11.10;;;;;;;-0.14;72.35;101264.81;25119;1316;3048743;-64
2022/02/13 06:12:43;;;;;;;27.70;12.30;;;;;;;-0.31;72.86;101265.12;25051;1316;3026253;-65
2022/02/13 06:15:12;;;;;;;30.50;12.80;;;;;;;-0.38;73.11;101269.17;25035;1315;3068205;-65
2022/02/13 06:17:43;;;;;;;35.20;13.90;;;;;;;-0.40;73.18;101267.23;25132;1316;3026963;-64
2022/02/13 06:20:13;;;;;;;33.70;14.60;;;;;;;-0.51;73.56;101270.55;25054;1316;3026626;-66
2022/02/13 06:22:41;;;;;;;40.60;16.60;;;;;;;-0.49;73.63;101270.05;25110;1316;3072271;-66
2022/02/13 06:25:10;;;;;;;46.60;17.50;;;;;;;-0.44;73.24;101276.48;25047;1315;3026568;-65
2022/02/13 06:27:39;;;;;;;39.40;15.50;;;;;;;-0.55;73.96;101279.27;25188;1315;3051143;-64
2022/02/13 06:30:09;;;;;;;45.80;17.50;;;;;;;-0.03;73.05;101278.73;25054;1315;3026695;-66
2022/02/13 06:32:39;;;;;;;58.00;19.40;;;;;;;0.65;71.14;101282.55;25186;1315;3051984;-64
2022/02/13 06:35:08;;;;;;;46.60;17.70;;;;;;;0.86;70.00;101282.73;25145;1316;3026441;-65
2022/02/13 06:37:37;;;;;;;60.60;20.80;;;;;;;0.83;69.57;101279.25;25101;1316;3049275;-65
2022/02/13 06:40:07;;;;;;;54.00;21.10;;;;;;;0.66;69.91;101281.86;25158;1316;3026742;-66
2022/02/13 06:42:36;;;;;;;60.60;20.80;;;;;;;0.52;70.07;101281.05;25126;1315;3028987;-66
2022/02/13 06:45:06;;;;;;;62.60;23.90;;;;;;;0.36;70.59;101288.46;25168;1316;3026896;-65
2022/02/13 06:47:36;;;;;;;74.60;24.20;;;;;;;0.40;70.51;101285.73;25144;1316;3055269;-65
2022/02/13 06:50:06;;;;;;;64.90;22.80;;;;;;;0.50;70.77;101289.81;25135;1316;3026521;-66
2022/02/13 06:52:38;;;;;;;64.80;22.00;;;;;;;0.50;70.08;101286.88;25139;1316;3049168;-65
2022/02/13 06:55:08;;;;;;;60.90;22.00;;;;;;;0.47;69.85;101284.10;25117;1316;3026925;-62
2022/02/13 06:57:44;;;;;;;64.70;22.40;;;;;;;0.39;70.10;101284.55;25061;1316;3056721;-66
2022/02/13 07:00:14;;;;;;;72.20;22.90;;;;;;;0.34;70.45;101289.15;25122;1316;3050165;-63
2022/02/13 07:02:43;;;;;;;72.70;23.60;;;;;;;0.45;69.87;101284.78;25010;1315;3026522;-63
2022/02/13 07:05:12;;;;;;;74.20;26.70;;;;;;;0.48;70.21;101285.14;25127;1316;3026747;-64
2022/02/13 07:07:42;;;;;;;71.10;25.00;;;;;;;0.65;70.10;101285.29;25096;1316;3028423;-64
2022/02/13 07:10:12;;;;;;;59.30;22.30;;;;;;;0.63;68.93;101284.09;25063;1316;3052870;-65
2022/02/13 07:12:42;;;;;;;68.30;22.10;;;;;;;0.65;68.31;101283.59;25158;1316;3027114;-64
2022/02/13 07:15:11;;;;;;;63.10;22.50;;;;;;;0.71;68.66;101278.27;25048;1316;3026050;-63
2022/02/13 07:17:40;;;;;;;65.60;22.30;;;;;;;0.74;68.21;101278.14;25114;1316;3052641;-67
2022/02/13 07:20:09;;;;;;;63.20;22.30;;;;;;;0.74;68.14;101275.39;25058;1315;3028906;-65
2022/02/13 07:22:40;;;;;;;65.00;22.40;;;;;;;0.83;67.99;101277.00;25081;1316;3027938;-66
2022/02/13 07:25:08;;;;;;;74.60;23.80;;;;;;;0.93;67.24;101276.40;25161;1314;3026056;-65
2022/02/13 07:27:44;;;;;;;69.10;25.20;;;;;;;0.92;66.92;101279.33;25133;1316;3051737;-65
2022/02/13 07:30:13;;;;;;;72.00;25.30;;;;;;;1.05;66.71;101280.29;25046;1316;3026401;-64
2022/02/13 07:32:44;;;;;;;80.90;28.70;;;;;;;1.12;66.33;101273.27;25035;1316;3056440;-65
2022/02/13 07:35:13;;;;;;;82.10;28.70;;;;;;;1.17;66.45;101279.50;25116;1316;3026991;-64
2022/02/13 07:37:42;;;;;;;72.50;25.10;;;;;;;1.23;65.36;101278.35;25156;1316;3026629;-64
2022/02/13 07:40:12;;;;;;;84.50;28.60;;;;;;;1.23;64.27;101282.83;25113;1316;3026636;-65
2022/02/13 07:42:42;;;;;;;93.00;30.70;;;;;;;1.31;64.77;101282.38;25139;1316;3053957;-66
2022/02/13 07:45:12;;;;;;;101.60;32.90;;;;;;;1.31;63.28;101280.64;25120;1316;3028221;-65
2022/02/13 07:47:41;;;;;;;115.80;35.20;;;;;;;1.28;61.71;101274.59;25059;1316;3026524;-65
2022/02/13 07:50:10;;;;;;;97.40;33.60;;;;;;;1.39;62.62;101275.17;25104;1315;3027062;-63
2022/02/13 07:52:39;;;;;;;115.50;35.60;;;;;;;1.47;62.59;101274.35;25107;1316;3070364;-64
2022/02/13 07:55:08;;;;;;;135.10;43.50;;;;;;;1.76;62.65;101284.16;25115;1315;3026344;-67
2022/02/13 07:57:37;;;;;;;124.40;37.70;;;;;;;1.67;62.44;101279.30;25165;1314;3053555;-65
2022/02/13 08:00:06;;;;;;;116.30;38.00;;;;;;;1.79;62.58;101283.66;25096;1315;3027095;-65
2022/02/13 08:02:41;;;;;;;74.60;27.10;;;;;;;1.74;62.10;101284.52;25210;1316;3055352;-66
2022/02/13 08:05:10;;;;;;;110.70;34.00;;;;;;;1.94;60.50;101279.93;25147;1315;3028961;-66
2022/02/13 08:07:46;;;;;;;93.60;30.70;;;;;;;2.14;60.31;101277.92;25128;1315;3049406;-66
2022/02/13 08:10:15;;;;;;;91.00;29.70;;;;;;;2.17;59.36;101276.20;25169;1315;3055238;-66
2022/02/13 08:12:45;;;;;;;94.70;30.20;;;;;;;2.21;59.31;101275.01;25162;1316;3028333;-66
2022/02/13 08:15:15;;;;;;;90.90;30.40;;;;;;;2.19;59.02;101268.95;25215;1316;3026210;-66
2022/02/13 08:17:44;;;;;;;100.10;33.80;;;;;;;2.20;58.78;101266.36;25111;1315;3029913;-66
2022/02/13 08:20:14;;;;;;;120.10;37.70;;;;;;;2.21;59.29;101264.80;25166;1316;3049838;-66
2022/02/13 08:22:43;;;;;;;98.10;32.20;;;;;;;2.16;59.68;101269.80;25126;1316;3027693;-66
2022/02/13 08:25:12;;;;;;;68.10;24.30;;;;;;;2.42;59.13;101274.36;25156;1316;3026214;-64
2022/02/13 08:27:42;;;;;;;78.00;22.10;;;;;;;2.40;55.71;101274.36;25151;1316;3053409;-67
2022/02/13 08:30:11;;;;;;;61.00;20.60;;;;;;;2.31;54.39;101272.77;25186;1315;3029414;-65
2022/02/13 08:32:42;;;;;;;59.90;18.70;;;;;;;2.29;54.25;101272.60;25262;1316;3053952;-64
2022/02/13 08:35:11;;;;;;;65.10;21.20;;;;;;;2.48;53.96;101270.05;25118;1315;3027848;-67
2022/02/13 08:37:40;;;;;;;62.90;20.10;;;;;;;2.57;53.03;101274.05;25136;1316;3051782;-64
2022/02/13 08:40:10;;;;;;;54.50;16.40;;;;;;;2.54;52.21;101276.11;25152;1315;3026170;-64
2022/02/13 08:42:41;;;;;;;52.80;15.40;;;;;;;2.74;52.43;101274.92;25109;1315;3058555;-66
2022/02/13 08:45:10;;;;;;;47.80;16.20;;;;;;;2.72;51.22;101273.71;25019;1316;3026599;-66
2022/02/13 08:47:39;;;;;;;58.70;19.40;;;;;;;2.75;52.03;101270.08;25126;1315;3053973;-65
2022/02/13 08:50:17;;;;;;;61.10;18.00;;;;;;;2.85;52.18;101267.31;25147;1316;3058996;-64
2022/02/13 08:52:46;;;;;;;68.50;22.40;;;;;;;2.93;52.29;101269.21;25035;1316;3028128;-65
2022/02/13 08:55:15;;;;;;;67.60;22.40;;;;;;;3.13;53.61;101265.90;25127;1317;3053551;-64
2022/02/13 08:57:45;;;;;;;76.30;22.80;;;;;;;3.18;53.78;101265.73;25135;1316;3026714;-66
2022/02/13 09:00:15;;;;;;;83.00;23.80;;;;;;;3.21;54.22;101270.39;25076;1315;3027058;-66
2022/02/13 09:02:44;;;;;;;64.20;22.40;;;;;;;2.93;53.85;101273.88;25190;1316;3027423;-64
2022/02/13 09:05:13;;;;;;;58.80;20.30;;;;;;;2.94;54.23;101271.80;25058;1316;3026378;-66
2022/02/13 09:07:42;;;;;;;72.80;19.20;;;;;;;3.26;54.18;101267.45;25072;1316;3048852;-66
2022/02/13 09:10:13;;;;;;;47.40;14.50;;;;;;;3.12;51.09;101258.98;25114;1316;3027317;-65
2022/02/13 09:12:43;;;;;;;45.20;13.70;;;;;;;3.13;48.63;101252.23;25124;1316;3027174;-64
2022/02/13 09:15:14;;;;;;;45.70;13.80;;;;;;;3.34;51.40;101253.92;25115;1316;3026689;-64
2022/02/13 09:17:43;;;;;;;41.00;14.20;;;;;;;3.41;51.90;101249.39;25102;1315;3026374;-67
2022/02/13 09:20:12;;;;;;;37.70;11.90;;;;;;;3.52;51.15;101249.72;25098;1316;3026485;-65
2022/02/13 09:22:41;;;;;;;30.60;10.20;;;;;;;3.58;49.67;101246.05;25046;1316;3068254;-66
2022/02/13 09:25:10;;;;;;;29.50;9.40;;;;;;;3.82;48.64;101240.23;25122;1316;3026187;-65
2022/02/13 09:27:42;;;;;;;22.50;6.90;;;;;;;3.72;47.87;101241.33;25088;1315;3053265;-66
2022/02/13 09:30:11;;;;;;;17.30;6.40;;;;;;;3.73;49.07;101238.73;25125;1316;3027573;-66
2022/02/13 09:32:41;;;;;;;20.40;6.50;;;;;;;3.75;46.01;101236.98;25117;1316;3054606;-68
2022/02/13 09:35:10;;;;;;;18.50;7.30;;;;;;;3.73;46.56;101237.16;25152;1316;3027635;-66
2022/02/13 09:37:39;;;;;;;12.40;4.60;;;;;;;3.79;47.07;101238.17;25028;1315;3026564;-67
2022/02/13 09:40:09;;;;;;;10.30;4.10;;;;;;;3.82;45.02;101241.63;25141;1316;3051213;-68
2022/02/13 09:42:40;;;;;;;14.90;5.20;;;;;;;3.88;45.78;101234.33;25068;1316;3026491;-65
2022/02/13 09:45:09;;;;;;;14.80;6.40;;;;;;;3.93;46.96;101236.55;25137;1316;3026627;-66
2022/02/13 09:47:38;;;;;;;20.80;6.40;;;;;;;3.90;46.46;101233.10;25112;1316;3027060;-64
2022/02/13 09:50:08;;;;;;;20.40;7.30;;;;;;;4.12;47.01;101231.07;25151;1315;3029613;-66
2022/02/13 09:52:38;;;;;;;18.10;6.10;;;;;;;4.06;47.05;101239.10;25155;1315;3069628;-65
2022/02/13 09:55:07;;;;;;;16.50;6.40;;;;;;;3.96;46.28;101229.08;25141;1315;3026835;-68
2022/02/13 10:00:24;;;;;;;26.60;8.20;;;;;;;4.30;48.03;101217.44;25025;1316;3067702;-67
2022/02/13 10:02:54;;;;;;;16.80;6.40;;;;;;;4.49;47.74;101217.83;25084;1314;3026515;-66
2022/02/13 10:05:23;;;;;;;20.60;8.00;;;;;;;4.65;47.49;101211.80;25144;1316;3051632;-67
2022/02/13 10:07:52;;;;;;;20.60;7.50;;;;;;;4.55;47.85;101210.32;25078;1315;3026847;-66
2022/02/13 10:10:21;;;;;;;17.50;5.80;;;;;;;4.55;48.77;101221.77;25066;1316;3053246;-68
2022/02/13 10:12:50;;;;;;;21.10;7.00;;;;;;;4.65;47.99;101210.23;25048;1318;3026803;-69
2022/02/13 10:15:22;;;;;;;20.70;7.00;;;;;;;4.58;48.71;101203.17;25072;1316;3052031;-65
2022/02/13 10:17:58;;;;;;;23.50;7.90;;;;;;;4.41;49.18;101206.09;25089;1316;3056363;-64
2022/02/13 10:20:28;;;;;;;21.20;7.20;;;;;;;4.59;49.07;101202.48;25108;1316;3026128;-66
2022/02/13 10:23:08;;;;;;;16.00;7.20;;;;;;;4.70;48.91;101194.73;25146;1315;3026577;-66
2022/02/13 10:25:38;;;;;;;19.60;6.50;;;;;;;4.56;48.45;101202.50;25160;1316;3049072;-64
2022/02/13 10:28:12;;;;;;;19.70;6.90;;;;;;;4.55;48.13;101196.44;25086;1316;3028489;-68
2022/02/13 10:30:42;;;;;;;20.40;6.00;;;;;;;4.52;47.78;101192.98;25077;1316;3051271;-66
2022/02/13 10:33:27;;;;;;;19.40;6.20;;;;;;;4.58;47.17;101189.30;25059;1316;3028750;-65
2022/02/13 10:36:13;;;;;;;20.90;6.70;;;;;;;4.70;47.42;101182.25;25095;1316;3048502;-65
2022/02/13 10:38:42;;;;;;;19.20;6.70;;;;;;;4.79;46.50;101181.80;25134;1316;3053649;-64
2022/02/13 10:41:18;;;;;;;22.60;6.40;;;;;;;4.61;47.49;101187.02;25155;1314;3027055;-65
2022/02/13 10:43:57;;;;;;;13.30;5.10;;;;;;;4.75;47.82;101180.12;25142;1316;3072916;-67
2022/02/13 10:46:30;;;;;;;13.70;5.50;;;;;;;4.48;47.37;101183.46;25106;1316;3049519;-67
2022/02/13 10:49:00;;;;;;;20.60;5.80;;;;;;;4.71;47.11;101173.20;25172;1316;3051357;-65
2022/02/13 10:51:29;;;;;;;18.60;5.70;;;;;;;4.94;46.59;101179.23;25129;1316;3026534;-68
2022/02/13 10:53:58;;;;;;;15.70;5.50;;;;;;;5.02;45.71;101172.55;25119;1316;3026348;-67
2022/02/13 10:56:27;;;;;;;14.90;5.50;;;;;;;4.93;44.33;101172.64;25125;1315;3054208;-65
2022/02/13 10:58:57;;;;;;;12.00;5.50;;;;;;;4.77;44.74;101167.77;25155;1315;3026337;-67
2022/02/13 11:01:27;;;;;;;22.20;5.90;;;;;;;5.04;44.71;101167.84;25093;1316;3049188;-63
2022/02/13 11:04:02;;;;;;;20.70;6.30;;;;;;;5.18;44.62;101160.58;25104;1315;3027144;-67
2022/02/13 11:06:35;;;;;;;17.70;6.80;;;;;;;5.21;44.14;101162.29;25093;1316;3051607;-66
2022/02/13 11:09:21;;;;;;;21.40;6.90;;;;;;;5.39;43.88;101155.81;25143;1316;3058730;-67
2022/02/13 11:11:56;;;;;;;22.30;7.20;;;;;;;5.56;43.77;101153.86;25109;1316;3052213;-66
2022/02/13 11:14:40;;;;;;;24.60;8.30;;;;;;;5.44;43.32;101151.91;25077;1319;3026565;-65
2022/02/13 11:17:09;;;;;;;17.10;6.80;;;;;;;5.49;43.04;101144.21;25123;1316;3049745;-66